Cancún, México

6:08 PM CST en Diciembre 19, 2014 (GMT -0600)
APRSWXNET Cancun MX | Change Station
CLOSE
Current Station
Estación meteorológica personal
Location: Cancun,
Altura: 59 ft
Estaciones meteorológicas cercanas

Alt 59 ft 21.15 °N, 86.84 °W | Updated 46 minutes ago

Light Rain
Lluvia débil
77 ° F
Sensación térmica 78 ° F
N
6
Viento Variable Viento desde NE
Gusts 11.0 mph

Hoy
Alta -- | Baja -- ° F
--% Posibilidad de precipitaciones
Ayer
Alta -- | Baja -- ° F
Precip. -- pul
6:18 AM 5:10 PM
Creciente menguante, 5% visible
Presión 29.91 pul
Visibilidad 5.0 Millas
Nubes Muy nublado 1500 ft
Nublado 7000 ft
Índice de calor 78 ° F
Punto de rocío 74 ° F
Humedad 91%
Precipitaciones 0.00 pul
Espesor de la nieve No disponible.
UV 0 de una escala de 12
Polen No disponible.
Calidad del aire No disponible.
Flu Activity No disponible.
METAR MMCZ 192344Z 11008KT 5SM -RA BKN015 OVC070 23/23 A2992 RMK SLP127 57009 977 60015 8/57/ -RA B37 RTS

More Conditions Fewer Conditions

Presión 29.91 pul
Visibilidad 5.0 Millas
Nubes Muy nublado 1500 ft
Nublado 7000 ft
Índice de calor 78 ° F
Punto de rocío 74 ° F
Humedad 91%
Precipitaciones 0.00 pul
Espesor de la nieve No disponible.
UV 0 de una escala de 12
Polen No disponible.
Calidad del aire No disponible.
Flu Activity No disponible.
METAR MMCZ 192344Z 11008KT 5SM -RA BKN015 OVC070 23/23 A2992 RMK SLP127 57009 977 60015 8/57/ -RA B37 RTS

More Conditions Fewer Conditions

10-Day Weather Forecast

Almanac

Astronomía

Dec. 19, 2014 Salida Puesta
Hora real
Crepúsculo civil
Crepúsculo náutico
Crepúsculo astronómico
Luna
Horas de luz
Horas de luz
Tomorrow will be .
, % of the Moon is Illuminated

Extremos de hoy

Máximos del país Bajas del país

Community

WunderPhotos

Upload Photos

1,779,079 ¡fotos cargadas!

WunderBlogs® & News

Nearby

Calidad del aire

  Calidad del aire Índice AQ Contaminante
Not available.

Grosos de nieve

Estación Profundido Altura

Actividad de terremotos

Ciudad Distance Mag. Tiempo y dato
Magnitud mínima muestra es 2,5.

Temperaturas de aguas costeras

Lugar Temperatura

Estaciones meteorológicas cercanas